createdAt,value
2022-11-07T00:01:11.389Z,82.83
2022-11-07T00:06:16.750Z,84.57
2022-11-07T00:11:20.987Z,84.12
2022-11-07T00:16:26.689Z,83.52
2022-11-07T00:21:32.117Z,84.06
2022-11-07T00:26:36.672Z,85.10
2022-11-07T00:31:41.303Z,85.78
2022-11-07T00:36:46.728Z,85.50
2022-11-07T00:41:50.704Z,84.87
2022-11-07T00:46:54.789Z,84.48
2022-11-07T00:52:00.241Z,85.07
2022-11-07T00:57:04.207Z,84.04
2022-11-07T01:02:08.574Z,83.66
2022-11-07T01:07:14.344Z,83.18
2022-11-07T01:12:18.367Z,84.01
2022-11-07T01:17:22.699Z,85.87
2022-11-07T01:22:28.229Z,85.98
2022-11-07T01:27:32.682Z,85.14
2022-11-07T01:32:36.644Z,85.19
2022-11-07T01:37:42.300Z,84.08
2022-11-07T01:42:46.355Z,84.82
2022-11-07T01:47:51.604Z,84.61
2022-11-07T01:52:58.353Z,83.77
2022-11-07T01:58:04.993Z,84.86
2022-11-07T02:03:12.236Z,84.29
2022-11-07T02:08:19.088Z,83.49
2022-11-07T02:13:27.275Z,83.91
2022-11-07T02:18:34.200Z,84.57
2022-11-07T02:23:45.363Z,84.06
2022-11-07T02:28:52.160Z,84.64
2022-11-07T02:33:56.307Z,84.19
2022-11-07T02:39:01.431Z,84.25
2022-11-07T02:44:11.759Z,83.30
2022-11-07T02:49:15.808Z,82.82
2022-11-07T02:54:20.069Z,83.70
2022-11-07T02:59:27.137Z,83.01
2022-11-07T03:04:31.420Z,82.51
2022-11-07T03:09:36.016Z,82.14
2022-11-07T03:14:41.785Z,82.99
2022-11-07T03:19:45.890Z,84.08
2022-11-07T03:24:49.974Z,84.27
2022-11-07T03:29:55.681Z,85.25
2022-11-07T03:34:59.969Z,85.16
2022-11-07T03:40:04.120Z,84.44
2022-11-07T03:45:11.863Z,83.51
2022-11-07T03:50:20.227Z,83.95
2022-11-07T03:55:24.192Z,84.41
2022-11-07T04:00:30.650Z,84.44
2022-11-07T04:05:34.572Z,84.22
2022-11-07T04:10:38.840Z,85.15
2022-11-07T04:16:04.020Z,84.08
2022-11-07T04:21:08.332Z,83.46
2022-11-07T04:26:29.942Z,84.10
2022-11-07T04:31:35.556Z,84.07
2022-11-07T04:36:39.626Z,83.81
2022-11-07T04:41:43.675Z,84.44
2022-11-07T04:46:49.128Z,84.34
2022-11-07T04:51:57.478Z,83.63
2022-11-07T04:57:01.681Z,83.64
2022-11-07T05:02:07.570Z,83.01
2022-11-07T05:07:12.031Z,82.87
2022-11-07T05:12:16.222Z,83.63
2022-11-07T05:17:26.883Z,83.13
2022-11-07T05:22:56.120Z,82.67
2022-11-07T05:28:00.433Z,84.08
2022-11-07T05:33:06.048Z,84.41
2022-11-07T05:38:10.713Z,85.89
2022-11-07T05:43:17.022Z,86.09
2022-11-07T05:48:22.675Z,87.06
2022-11-07T05:53:27.522Z,85.40
2022-11-07T05:58:32.100Z,84.35
2022-11-07T06:03:37.877Z,85.28
2022-11-07T06:08:44.266Z,85.98
2022-11-07T06:13:48.588Z,85.31
2022-11-07T06:18:54.107Z,86.28
2022-11-07T06:23:59.062Z,85.70
2022-11-07T06:29:03.116Z,86.05
2022-11-07T06:34:08.906Z,84.89
2022-11-07T06:39:13.092Z,85.57
2022-11-07T06:44:18.832Z,85.88
2022-11-07T06:49:24.252Z,87.49
2022-11-07T06:54:28.521Z,86.71
2022-11-07T06:59:32.986Z,85.50
2022-11-07T07:04:38.846Z,85.95
2022-11-07T07:09:42.944Z,86.18
2022-11-07T07:14:46.943Z,86.13
2022-11-07T07:19:53.058Z,85.94
2022-11-07T07:24:57.082Z,85.05
2022-11-07T07:30:01.533Z,84.82
2022-11-07T07:35:09.263Z,83.69
2022-11-07T07:40:13.775Z,81.75
2022-11-07T07:45:19.059Z,80.41
2022-11-07T08:04:53.035Z,80.65
2022-11-07T08:09:59.396Z,77.95
2022-11-07T08:15:09.136Z,75.85
2022-11-07T08:20:16.329Z,70.93
2022-11-07T08:25:20.421Z,70.88
2022-11-07T08:30:24.416Z,70.45
2022-11-07T08:35:30.548Z,66.70
2022-11-07T08:40:34.617Z,63.34
2022-11-07T08:45:38.764Z,63.91
2022-11-07T08:50:44.716Z,65.60
2022-11-07T08:55:49.248Z,66.48
2022-11-07T09:00:53.317Z,67.17
2022-11-07T09:05:59.284Z,65.62
2022-11-07T09:11:04.336Z,61.98
2022-11-07T09:16:10.314Z,62.23
2022-11-07T09:21:22.122Z,61.84
2022-11-07T09:26:26.612Z,58.58
2022-11-07T09:31:30.919Z,53.50
2022-11-07T09:36:36.292Z,48.47
2022-11-07T09:41:55.849Z,46.93
2022-11-07T09:47:06.904Z,44.73
2022-11-07T09:52:18.436Z,43.89
2022-11-07T09:57:22.668Z,42.18
2022-11-07T10:02:30.545Z,42.29
2022-11-07T10:07:46.113Z,44.07
2022-11-07T10:13:15.951Z,43.53
2022-11-07T10:18:31.307Z,42.63
2022-11-07T10:23:55.956Z,40.47
2022-11-07T10:29:03.133Z,41.63
2022-11-07T10:34:17.061Z,41.19
2022-11-07T10:39:26.056Z,43.10
2022-11-07T10:44:31.183Z,41.49
2022-11-07T10:49:36.495Z,43.54
2022-11-07T10:54:44.928Z,43.78
2022-11-07T10:59:58.441Z,43.35
2022-11-07T11:05:04.306Z,42.62
2022-11-07T11:10:20.270Z,43.49
2022-11-07T11:15:31.253Z,42.86
2022-11-07T11:20:41.809Z,41.08
2022-11-07T11:25:48.850Z,41.34
2022-11-07T11:30:59.205Z,42.76
2022-11-07T11:36:11.053Z,42.84
2022-11-07T11:41:23.707Z,45.65
2022-11-07T11:46:31.309Z,44.45
2022-11-07T11:51:41.850Z,43.36
2022-11-07T11:56:54.082Z,42.63
2022-11-07T12:02:11.941Z,43.08
2022-11-07T12:07:31.762Z,43.31
2022-11-07T12:12:48.547Z,43.06
2022-11-07T12:18:00.333Z,42.93
2022-11-07T12:23:21.810Z,42.64
2022-11-07T12:28:40.957Z,42.33
2022-11-07T12:33:50.306Z,41.06
2022-11-07T12:39:27.749Z,41.84
2022-11-07T12:44:47.039Z,42.47
2022-11-07T12:50:11.569Z,41.09
2022-11-07T12:55:22.528Z,41.63
2022-11-07T13:00:30.431Z,41.22
2022-11-07T13:05:51.544Z,40.65
2022-11-07T13:11:03.717Z,40.96
2022-11-07T13:16:23.539Z,42.92
2022-11-07T13:21:27.616Z,43.15
2022-11-07T13:26:48.168Z,42.99
2022-11-07T13:32:08.056Z,42.59
2022-11-07T13:37:20.139Z,44.22
2022-11-07T13:42:28.439Z,44.76
2022-11-07T13:47:41.890Z,45.27
2022-11-07T13:52:55.503Z,46.14
2022-11-07T13:58:05.791Z,47.50
2022-11-07T14:03:24.513Z,49.71
2022-11-07T14:08:32.633Z,51.20
2022-11-07T14:13:41.463Z,51.96
2022-11-07T14:18:49.683Z,53.92
2022-11-07T14:23:53.697Z,54.28
2022-11-07T14:29:00.795Z,54.78
2022-11-07T14:34:20.471Z,55.72
2022-11-07T14:39:28.318Z,56.96
2022-11-07T14:50:03.906Z,59.36
2022-11-07T14:55:13.969Z,59.76
2022-11-07T15:00:21.017Z,60.61
2022-11-07T15:05:31.853Z,61.36
2022-11-07T15:10:39.789Z,62.47
2022-11-07T15:15:48.477Z,63.10
2022-11-07T15:21:00.079Z,64.98
2022-11-07T15:26:13.144Z,64.30
2022-11-07T15:31:25.000Z,66.60
2022-11-07T15:36:30.616Z,66.13
2022-11-07T15:41:35.601Z,67.24
2022-11-07T15:46:41.025Z,68.59
2022-11-07T15:51:46.359Z,69.37
2022-11-07T15:56:54.544Z,69.32
2022-11-07T16:02:02.920Z,69.96
2022-11-07T16:07:15.495Z,71.33
2022-11-07T16:12:20.286Z,72.36
2022-11-07T16:17:24.272Z,71.87
2022-11-07T16:22:29.833Z,72.86
2022-11-07T16:27:34.077Z,72.26
2022-11-07T16:32:38.105Z,72.84
2022-11-07T16:37:44.937Z,72.55
2022-11-07T16:42:49.930Z,72.00
2022-11-07T16:47:53.883Z,72.12
2022-11-07T16:52:59.472Z,72.16
2022-11-07T16:58:03.440Z,72.71
2022-11-07T17:03:07.620Z,73.66
2022-11-07T17:08:19.420Z,71.50
2022-11-07T17:13:25.541Z,71.80
2022-11-07T17:18:29.936Z,72.38
2022-11-07T17:23:36.768Z,73.46
2022-11-07T17:28:40.735Z,73.09
2022-11-07T17:33:44.862Z,73.33
2022-11-07T17:38:52.011Z,73.77
2022-11-07T17:43:57.680Z,73.38
2022-11-07T17:49:04.796Z,73.50
2022-11-07T17:54:12.803Z,74.60
2022-11-07T17:59:21.570Z,75.51
2022-11-07T18:04:25.712Z,75.09
2022-11-07T18:09:31.133Z,75.97
2022-11-07T18:14:35.388Z,76.35
2022-11-07T18:19:39.339Z,76.84
2022-11-07T18:24:46.791Z,77.10
2022-11-07T18:29:51.231Z,77.03
2022-11-07T18:34:55.153Z,76.83
2022-11-07T18:40:00.906Z,76.96
2022-11-07T18:45:05.808Z,77.44
2022-11-07T18:50:11.289Z,77.68
2022-11-07T18:55:18.364Z,78.05
2022-11-07T19:00:24.515Z,78.11
2022-11-07T19:05:29.596Z,77.69
2022-11-07T19:10:37.996Z,77.44
2022-11-07T19:15:42.750Z,77.06
2022-11-07T19:20:48.045Z,76.34
2022-11-07T19:25:54.384Z,77.12
2022-11-07T19:30:58.563Z,76.31
2022-11-07T19:36:05.933Z,76.83
2022-11-07T19:41:12.258Z,77.11
2022-11-07T19:46:18.863Z,77.45
2022-11-07T19:51:23.956Z,77.88
2022-11-07T19:56:32.442Z,77.65
2022-11-07T20:01:39.316Z,78.02
2022-11-07T20:06:54.914Z,78.10
2022-11-07T20:12:00.642Z,76.73
2022-11-07T20:17:06.397Z,76.27
2022-11-07T20:22:12.160Z,77.25
2022-11-07T20:27:17.830Z,79.42
2022-11-07T20:32:21.779Z,78.75
2022-11-07T20:37:25.728Z,76.70
2022-11-07T20:42:31.579Z,76.51
2022-11-07T20:47:36.014Z,77.97
2022-11-07T20:52:40.256Z,76.97
2022-11-07T20:57:45.717Z,77.96
2022-11-07T21:02:50.309Z,77.96
2022-11-07T21:07:54.321Z,78.15
2022-11-07T21:13:02.666Z,78.12
2022-11-07T21:18:08.370Z,78.81
2022-11-07T21:23:13.384Z,78.66
2022-11-07T21:28:20.021Z,78.73
2022-11-07T21:33:25.384Z,77.45
2022-11-07T21:38:29.421Z,77.23
2022-11-07T21:43:35.222Z,78.42
2022-11-07T21:48:39.989Z,78.54
2022-11-07T21:53:44.432Z,79.18
2022-11-07T21:58:50.576Z,79.67
2022-11-07T22:04:11.786Z,79.90
2022-11-07T22:09:19.834Z,79.31
2022-11-07T22:14:25.279Z,79.14
2022-11-07T22:19:30.306Z,80.61
2022-11-07T22:24:34.343Z,81.17
2022-11-07T22:29:39.843Z,82.13
2022-11-07T22:34:43.804Z,81.57
2022-11-07T22:39:48.491Z,82.05
2022-11-07T22:44:54.042Z,81.93
2022-11-07T22:50:00.296Z,79.54
2022-11-07T22:55:04.589Z,80.56
2022-11-07T23:00:21.336Z,84.50
2022-11-07T23:05:25.942Z,83.59
2022-11-07T23:10:30.441Z,84.32
2022-11-07T23:15:36.050Z,85.15
2022-11-07T23:20:57.617Z,84.59
2022-11-07T23:26:02.853Z,85.44
2022-11-07T23:31:09.752Z,86.18
2022-11-07T23:36:15.244Z,86.38
2022-11-07T23:41:19.489Z,85.56
2022-11-07T23:46:42.072Z,86.08
2022-11-07T23:51:47.428Z,83.93
2022-11-07T23:56:52.452Z,82.96
